sensor_id;sensor_type;location;lat;lon;timestamp;P1;durP1;ratioP1;P2;durP2;ratioP2
74793;SDS011;63320;50.768;6.724;2023-06-14T00:01:48;8.02;;;5.03;;
74793;SDS011;63320;50.768;6.724;2023-06-14T00:04:14;7.90;;;4.93;;
74793;SDS011;63320;50.768;6.724;2023-06-14T00:06:39;10.27;;;5.05;;
74793;SDS011;63320;50.768;6.724;2023-06-14T00:09:05;8.93;;;4.93;;
74793;SDS011;63320;50.768;6.724;2023-06-14T00:11:30;8.27;;;5.03;;
74793;SDS011;63320;50.768;6.724;2023-06-14T00:13:55;11.32;;;5.57;;
74793;SDS011;63320;50.768;6.724;2023-06-14T00:16:21;8.75;;;5.00;;
74793;SDS011;63320;50.768;6.724;2023-06-14T00:18:47;11.25;;;5.10;;
74793;SDS011;63320;50.768;6.724;2023-06-14T00:21:13;10.40;;;5.20;;
74793;SDS011;63320;50.768;6.724;2023-06-14T00:23:38;8.77;;;5.13;;
74793;SDS011;63320;50.768;6.724;2023-06-14T00:26:03;9.50;;;5.07;;
74793;SDS011;63320;50.768;6.724;2023-06-14T00:28:29;9.15;;;5.10;;
74793;SDS011;63320;50.768;6.724;2023-06-14T00:30:54;9.35;;;5.03;;
74793;SDS011;63320;50.768;6.724;2023-06-14T00:33:20;8.10;;;5.35;;
74793;SDS011;63320;50.768;6.724;2023-06-14T00:35:46;11.20;;;4.90;;
74793;SDS011;63320;50.768;6.724;2023-06-14T00:38:12;8.10;;;5.55;;
74793;SDS011;63320;50.768;6.724;2023-06-14T00:40:37;7.20;;;4.68;;
74793;SDS011;63320;50.768;6.724;2023-06-14T00:43:02;8.27;;;5.05;;
74793;SDS011;63320;50.768;6.724;2023-06-14T00:45:27;9.48;;;4.90;;
74793;SDS011;63320;50.768;6.724;2023-06-14T00:47:53;8.25;;;5.18;;
74793;SDS011;63320;50.768;6.724;2023-06-14T00:50:19;10.88;;;5.68;;
74793;SDS011;63320;50.768;6.724;2023-06-14T00:52:47;12.43;;;5.32;;
74793;SDS011;63320;50.768;6.724;2023-06-14T00:55:12;9.73;;;5.35;;
74793;SDS011;63320;50.768;6.724;2023-06-14T00:57:38;7.97;;;5.50;;
74793;SDS011;63320;50.768;6.724;2023-06-14T01:00:04;8.68;;;5.47;;
74793;SDS011;63320;50.768;6.724;2023-06-14T01:02:30;7.15;;;5.13;;
74793;SDS011;63320;50.768;6.724;2023-06-14T01:04:55;9.15;;;5.38;;
74793;SDS011;63320;50.768;6.724;2023-06-14T01:07:23;8.90;;;5.47;;
74793;SDS011;63320;50.768;6.724;2023-06-14T01:10:02;8.38;;;5.00;;
74793;SDS011;63320;50.768;6.724;2023-06-14T01:12:39;9.10;;;5.60;;
74793;SDS011;63320;50.768;6.724;2023-06-14T01:15:13;8.50;;;5.57;;
74793;SDS011;63320;50.768;6.724;2023-06-14T01:17:39;9.93;;;5.10;;
74793;SDS011;63320;50.768;6.724;2023-06-14T01:20:07;9.57;;;5.30;;
74793;SDS011;63320;50.768;6.724;2023-06-14T01:22:33;8.90;;;5.60;;
74793;SDS011;63320;50.768;6.724;2023-06-14T01:24:59;7.90;;;5.72;;
74793;SDS011;63320;50.768;6.724;2023-06-14T01:27:25;10.02;;;5.70;;
74793;SDS011;63320;50.768;6.724;2023-06-14T01:29:51;9.00;;;5.68;;
74793;SDS011;63320;50.768;6.724;2023-06-14T01:32:18;9.80;;;5.82;;
74793;SDS011;63320;50.768;6.724;2023-06-14T01:34:43;10.07;;;6.20;;
74793;SDS011;63320;50.768;6.724;2023-06-14T01:37:09;9.35;;;5.57;;
74793;SDS011;63320;50.768;6.724;2023-06-14T01:39:36;9.73;;;5.65;;
74793;SDS011;63320;50.768;6.724;2023-06-14T01:42:03;10.00;;;5.20;;
74793;SDS011;63320;50.768;6.724;2023-06-14T01:44:30;8.98;;;5.55;;
74793;SDS011;63320;50.768;6.724;2023-06-14T01:46:56;8.75;;;5.50;;
74793;SDS011;63320;50.768;6.724;2023-06-14T01:49:22;9.18;;;5.28;;
74793;SDS011;63320;50.768;6.724;2023-06-14T01:51:47;8.88;;;6.00;;
74793;SDS011;63320;50.768;6.724;2023-06-14T01:54:12;9.73;;;5.68;;
74793;SDS011;63320;50.768;6.724;2023-06-14T01:56:38;11.70;;;6.10;;
74793;SDS011;63320;50.768;6.724;2023-06-14T01:59:04;10.15;;;6.15;;
74793;SDS011;63320;50.768;6.724;2023-06-14T02:01:30;10.43;;;6.28;;
74793;SDS011;63320;50.768;6.724;2023-06-14T02:03:55;8.27;;;5.65;;
74793;SDS011;63320;50.768;6.724;2023-06-14T02:06:20;7.78;;;5.57;;
74793;SDS011;63320;50.768;6.724;2023-06-14T02:08:46;10.10;;;5.75;;
74793;SDS011;63320;50.768;6.724;2023-06-14T02:11:11;10.10;;;5.50;;
74793;SDS011;63320;50.768;6.724;2023-06-14T02:13:36;8.80;;;5.60;;
74793;SDS011;63320;50.768;6.724;2023-06-14T02:16:03;11.80;;;5.78;;
74793;SDS011;63320;50.768;6.724;2023-06-14T02:18:28;8.70;;;5.53;;
74793;SDS011;63320;50.768;6.724;2023-06-14T02:20:54;9.35;;;5.63;;
74793;SDS011;63320;50.768;6.724;2023-06-14T02:23:20;9.35;;;5.40;;
74793;SDS011;63320;50.768;6.724;2023-06-14T02:25:45;9.93;;;6.22;;
74793;SDS011;63320;50.768;6.724;2023-06-14T02:28:11;10.20;;;6.40;;
74793;SDS011;63320;50.768;6.724;2023-06-14T02:30:36;9.07;;;5.57;;
74793;SDS011;63320;50.768;6.724;2023-06-14T02:33:03;8.68;;;5.57;;
74793;SDS011;63320;50.768;6.724;2023-06-14T02:35:29;9.82;;;5.63;;
74793;SDS011;63320;50.768;6.724;2023-06-14T02:37:55;8.80;;;5.57;;
74793;SDS011;63320;50.768;6.724;2023-06-14T02:40:20;9.10;;;5.40;;
74793;SDS011;63320;50.768;6.724;2023-06-14T02:42:46;11.55;;;6.20;;
74793;SDS011;63320;50.768;6.724;2023-06-14T02:45:11;10.68;;;5.47;;
74793;SDS011;63320;50.768;6.724;2023-06-14T02:47:36;10.52;;;5.85;;
74793;SDS011;63320;50.768;6.724;2023-06-14T02:50:03;7.82;;;5.68;;
74793;SDS011;63320;50.768;6.724;2023-06-14T02:52:29;10.63;;;5.85;;
74793;SDS011;63320;50.768;6.724;2023-06-14T02:54:54;9.85;;;5.65;;
74793;SDS011;63320;50.768;6.724;2023-06-14T02:57:20;8.05;;;5.93;;
74793;SDS011;63320;50.768;6.724;2023-06-14T02:59:45;10.05;;;6.15;;
74793;SDS011;63320;50.768;6.724;2023-06-14T03:02:10;8.82;;;6.28;;
74793;SDS011;63320;50.768;6.724;2023-06-14T03:04:36;9.25;;;5.82;;
74793;SDS011;63320;50.768;6.724;2023-06-14T03:07:03;11.02;;;5.80;;
74793;SDS011;63320;50.768;6.724;2023-06-14T03:09:29;9.40;;;5.68;;
74793;SDS011;63320;50.768;6.724;2023-06-14T03:11:54;8.65;;;5.95;;
74793;SDS011;63320;50.768;6.724;2023-06-14T03:14:19;12.00;;;6.07;;
74793;SDS011;63320;50.768;6.724;2023-06-14T03:16:45;8.05;;;5.38;;
74793;SDS011;63320;50.768;6.724;2023-06-14T03:19:10;10.38;;;6.20;;
74793;SDS011;63320;50.768;6.724;2023-06-14T03:21:35;8.38;;;5.60;;
74793;SDS011;63320;50.768;6.724;2023-06-14T03:24:02;10.65;;;5.63;;
74793;SDS011;63320;50.768;6.724;2023-06-14T03:26:27;7.97;;;6.00;;
74793;SDS011;63320;50.768;6.724;2023-06-14T03:28:53;7.80;;;5.55;;
74793;SDS011;63320;50.768;6.724;2023-06-14T03:31:18;7.95;;;5.45;;
74793;SDS011;63320;50.768;6.724;2023-06-14T03:33:43;10.73;;;6.00;;
74793;SDS011;63320;50.768;6.724;2023-06-14T03:36:09;9.75;;;6.07;;
74793;SDS011;63320;50.768;6.724;2023-06-14T03:38:34;9.85;;;5.95;;
74793;SDS011;63320;50.768;6.724;2023-06-14T03:41:01;11.45;;;5.70;;
74793;SDS011;63320;50.768;6.724;2023-06-14T03:43:26;7.63;;;5.28;;
74793;SDS011;63320;50.768;6.724;2023-06-14T03:45:52;10.90;;;5.80;;
74793;SDS011;63320;50.768;6.724;2023-06-14T03:48:17;10.18;;;6.03;;
74793;SDS011;63320;50.768;6.724;2023-06-14T03:50:42;8.93;;;5.72;;
74793;SDS011;63320;50.768;6.724;2023-06-14T03:53:08;10.80;;;6.10;;
74793;SDS011;63320;50.768;6.724;2023-06-14T03:55:33;8.52;;;5.60;;
74793;SDS011;63320;50.768;6.724;2023-06-14T03:58:00;8.63;;;5.70;;
74793;SDS011;63320;50.768;6.724;2023-06-14T04:00:26;11.57;;;5.68;;
74793;SDS011;63320;50.768;6.724;2023-06-14T04:02:51;9.70;;;5.82;;
74793;SDS011;63320;50.768;6.724;2023-06-14T04:05:16;9.35;;;5.85;;
74793;SDS011;63320;50.768;6.724;2023-06-14T04:07:42;14.07;;;6.00;;
74793;SDS011;63320;50.768;6.724;2023-06-14T04:10:08;9.57;;;5.72;;
74793;SDS011;63320;50.768;6.724;2023-06-14T04:12:33;8.52;;;5.82;;
74793;SDS011;63320;50.768;6.724;2023-06-14T04:15:00;9.20;;;5.70;;
74793;SDS011;63320;50.768;6.724;2023-06-14T04:17:25;11.43;;;6.10;;
74793;SDS011;63320;50.768;6.724;2023-06-14T04:19:51;12.05;;;5.80;;
74793;SDS011;63320;50.768;6.724;2023-06-14T04:22:16;8.15;;;5.75;;
74793;SDS011;63320;50.768;6.724;2023-06-14T04:24:41;9.50;;;5.97;;
74793;SDS011;63320;50.768;6.724;2023-06-14T04:27:07;9.00;;;6.03;;
74793;SDS011;63320;50.768;6.724;2023-06-14T04:29:32;8.07;;;5.57;;
74793;SDS011;63320;50.768;6.724;2023-06-14T04:31:59;9.73;;;5.78;;
74793;SDS011;63320;50.768;6.724;2023-06-14T04:34:24;10.45;;;5.72;;
74793;SDS011;63320;50.768;6.724;2023-06-14T04:36:49;8.82;;;5.70;;
74793;SDS011;63320;50.768;6.724;2023-06-14T04:39:15;8.40;;;5.45;;
74793;SDS011;63320;50.768;6.724;2023-06-14T04:41:40;9.57;;;6.20;;
74793;SDS011;63320;50.768;6.724;2023-06-14T04:44:06;10.52;;;6.20;;
74793;SDS011;63320;50.768;6.724;2023-06-14T04:46:31;8.20;;;5.93;;
74793;SDS011;63320;50.768;6.724;2023-06-14T04:48:58;10.13;;;5.82;;
74793;SDS011;63320;50.768;6.724;2023-06-14T04:51:23;10.50;;;6.78;;
74793;SDS011;63320;50.768;6.724;2023-06-14T04:53:48;9.68;;;5.97;;
74793;SDS011;63320;50.768;6.724;2023-06-14T04:56:14;8.93;;;5.80;;
74793;SDS011;63320;50.768;6.724;2023-06-14T04:58:39;11.02;;;5.97;;
74793;SDS011;63320;50.768;6.724;2023-06-14T05:01:05;12.18;;;5.93;;
74793;SDS011;63320;50.768;6.724;2023-06-14T05:03:30;10.60;;;5.82;;
74793;SDS011;63320;50.768;6.724;2023-06-14T05:05:57;12.27;;;6.00;;
74793;SDS011;63320;50.768;6.724;2023-06-14T05:08:22;10.38;;;6.40;;
74793;SDS011;63320;50.768;6.724;2023-06-14T05:10:47;10.27;;;5.97;;
74793;SDS011;63320;50.768;6.724;2023-06-14T05:13:13;8.93;;;5.78;;
74793;SDS011;63320;50.768;6.724;2023-06-14T05:15:38;10.20;;;5.80;;
74793;SDS011;63320;50.768;6.724;2023-06-14T05:18:03;9.45;;;5.72;;
74793;SDS011;63320;50.768;6.724;2023-06-14T05:20:29;9.95;;;5.75;;
74793;SDS011;63320;50.768;6.724;2023-06-14T05:22:55;10.75;;;6.05;;
74793;SDS011;63320;50.768;6.724;2023-06-14T05:25:20;8.38;;;6.13;;
74793;SDS011;63320;50.768;6.724;2023-06-14T05:27:46;8.82;;;6.13;;
74793;SDS011;63320;50.768;6.724;2023-06-14T05:30:12;11.02;;;5.50;;
74793;SDS011;63320;50.768;6.724;2023-06-14T05:32:38;8.02;;;5.22;;
74793;SDS011;63320;50.768;6.724;2023-06-14T05:35:03;8.15;;;5.43;;
74793;SDS011;63320;50.768;6.724;2023-06-14T05:37:29;9.65;;;5.78;;
74793;SDS011;63320;50.768;6.724;2023-06-14T05:39:56;9.43;;;5.28;;
74793;SDS011;63320;50.768;6.724;2023-06-14T05:42:21;10.77;;;5.05;;
74793;SDS011;63320;50.768;6.724;2023-06-14T05:44:47;8.88;;;5.40;;
74793;SDS011;63320;50.768;6.724;2023-06-14T05:47:12;10.05;;;5.30;;
74793;SDS011;63320;50.768;6.724;2023-06-14T05:49:37;7.55;;;4.80;;
74793;SDS011;63320;50.768;6.724;2023-06-14T05:52:03;7.72;;;5.22;;
74793;SDS011;63320;50.768;6.724;2023-06-14T05:54:28;9.73;;;4.68;;
74793;SDS011;63320;50.768;6.724;2023-06-14T05:56:55;8.75;;;5.25;;
74793;SDS011;63320;50.768;6.724;2023-06-14T05:59:20;9.70;;;5.43;;
74793;SDS011;63320;50.768;6.724;2023-06-14T06:01:46;11.82;;;5.18;;
74793;SDS011;63320;50.768;6.724;2023-06-14T06:04:11;8.98;;;5.05;;
74793;SDS011;63320;50.768;6.724;2023-06-14T06:06:36;13.20;;;5.45;;
74793;SDS011;63320;50.768;6.724;2023-06-14T06:09:02;11.02;;;5.45;;
74793;SDS011;63320;50.768;6.724;2023-06-14T06:11:27;11.20;;;5.22;;
74793;SDS011;63320;50.768;6.724;2023-06-14T06:13:54;8.70;;;5.43;;
74793;SDS011;63320;50.768;6.724;2023-06-14T06:16:19;8.65;;;5.30;;
74793;SDS011;63320;50.768;6.724;2023-06-14T06:18:45;9.63;;;5.30;;
74793;SDS011;63320;50.768;6.724;2023-06-14T06:21:10;10.85;;;5.03;;
74793;SDS011;63320;50.768;6.724;2023-06-14T06:23:36;9.50;;;4.80;;
74793;SDS011;63320;50.768;6.724;2023-06-14T06:26:01;10.77;;;5.10;;
74793;SDS011;63320;50.768;6.724;2023-06-14T06:28:26;10.90;;;4.88;;
74793;SDS011;63320;50.768;6.724;2023-06-14T06:30:53;8.23;;;4.47;;
74793;SDS011;63320;50.768;6.724;2023-06-14T06:33:18;9.88;;;4.80;;
74793;SDS011;63320;50.768;6.724;2023-06-14T06:35:44;9.43;;;4.47;;
74793;SDS011;63320;50.768;6.724;2023-06-14T06:38:09;9.80;;;4.30;;
74793;SDS011;63320;50.768;6.724;2023-06-14T06:40:34;6.25;;;3.78;;
74793;SDS011;63320;50.768;6.724;2023-06-14T06:43:00;7.97;;;3.33;;
74793;SDS011;63320;50.768;6.724;2023-06-14T06:45:25;10.48;;;3.33;;
74793;SDS011;63320;50.768;6.724;2023-06-14T06:47:52;10.73;;;3.30;;
74793;SDS011;63320;50.768;6.724;2023-06-14T06:50:17;5.88;;;3.28;;
74793;SDS011;63320;50.768;6.724;2023-06-14T06:52:43;8.25;;;3.22;;
74793;SDS011;63320;50.768;6.724;2023-06-14T06:55:08;7.65;;;3.30;;
74793;SDS011;63320;50.768;6.724;2023-06-14T06:57:34;7.82;;;3.30;;
74793;SDS011;63320;50.768;6.724;2023-06-14T06:59:59;8.07;;;3.40;;
74793;SDS011;63320;50.768;6.724;2023-06-14T07:02:24;8.95;;;3.63;;
74793;SDS011;63320;50.768;6.724;2023-06-14T07:04:51;9.40;;;3.15;;
74793;SDS011;63320;50.768;6.724;2023-06-14T07:07:17;8.98;;;3.58;;
74793;SDS011;63320;50.768;6.724;2023-06-14T07:09:42;6.55;;;3.13;;
74793;SDS011;63320;50.768;6.724;2023-06-14T07:12:07;5.65;;;3.17;;
74793;SDS011;63320;50.768;6.724;2023-06-14T07:14:33;6.13;;;3.20;;
74793;SDS011;63320;50.768;6.724;2023-06-14T07:16:58;8.60;;;3.30;;
74793;SDS011;63320;50.768;6.724;2023-06-14T07:19:24;10.52;;;3.35;;
74793;SDS011;63320;50.768;6.724;2023-06-14T07:21:50;8.48;;;3.28;;
74793;SDS011;63320;50.768;6.724;2023-06-14T07:24:16;8.88;;;3.30;;
74793;SDS011;63320;50.768;6.724;2023-06-14T07:26:41;8.32;;;3.60;;
74793;SDS011;63320;50.768;6.724;2023-06-14T07:29:06;8.25;;;3.08;;
74793;SDS011;63320;50.768;6.724;2023-06-14T07:31:32;6.63;;;3.10;;
74793;SDS011;63320;50.768;6.724;2023-06-14T07:33:57;10.55;;;3.30;;
74793;SDS011;63320;50.768;6.724;2023-06-14T07:36:22;10.32;;;3.10;;
74793;SDS011;63320;50.768;6.724;2023-06-14T07:38:49;7.82;;;2.97;;
74793;SDS011;63320;50.768;6.724;2023-06-14T07:41:15;7.50;;;3.05;;
74793;SDS011;63320;50.768;6.724;2023-06-14T07:43:41;9.65;;;3.33;;
74793;SDS011;63320;50.768;6.724;2023-06-14T07:46:06;5.88;;;3.05;;
74793;SDS011;63320;50.768;6.724;2023-06-14T07:48:31;5.90;;;2.55;;
74793;SDS011;63320;50.768;6.724;2023-06-14T07:50:57;11.95;;;2.72;;
74793;SDS011;63320;50.768;6.724;2023-06-14T07:53:22;6.90;;;2.67;;
74793;SDS011;63320;50.768;6.724;2023-06-14T07:55:49;5.85;;;2.78;;
74793;SDS011;63320;50.768;6.724;2023-06-14T07:58:14;5.38;;;2.50;;
74793;SDS011;63320;50.768;6.724;2023-06-14T08:00:40;10.35;;;3.03;;
74793;SDS011;63320;50.768;6.724;2023-06-14T08:03:05;7.43;;;2.47;;
74793;SDS011;63320;50.768;6.724;2023-06-14T08:05:30;6.65;;;2.50;;
74793;SDS011;63320;50.768;6.724;2023-06-14T08:07:55;6.70;;;2.33;;
74793;SDS011;63320;50.768;6.724;2023-06-14T08:10:21;6.57;;;2.70;;
74793;SDS011;63320;50.768;6.724;2023-06-14T08:12:48;6.40;;;2.25;;
74793;SDS011;63320;50.768;6.724;2023-06-14T08:15:14;4.95;;;2.25;;
74793;SDS011;63320;50.768;6.724;2023-06-14T08:17:39;7.22;;;2.42;;
74793;SDS011;63320;50.768;6.724;2023-06-14T08:20:05;7.93;;;2.13;;
74793;SDS011;63320;50.768;6.724;2023-06-14T08:22:31;5.60;;;2.33;;
74793;SDS011;63320;50.768;6.724;2023-06-14T08:24:57;6.63;;;2.42;;
74793;SDS011;63320;50.768;6.724;2023-06-14T08:27:22;8.38;;;2.55;;
74793;SDS011;63320;50.768;6.724;2023-06-14T08:29:49;5.72;;;2.50;;
74793;SDS011;63320;50.768;6.724;2023-06-14T08:32:14;5.45;;;2.25;;
74793;SDS011;63320;50.768;6.724;2023-06-14T08:34:39;8.05;;;2.47;;
74793;SDS011;63320;50.768;6.724;2023-06-14T08:37:05;7.95;;;2.63;;
74793;SDS011;63320;50.768;6.724;2023-06-14T08:39:30;5.15;;;2.50;;
74793;SDS011;63320;50.768;6.724;2023-06-14T08:41:55;5.28;;;2.70;;
74793;SDS011;63320;50.768;6.724;2023-06-14T08:44:22;5.90;;;2.70;;
74793;SDS011;63320;50.768;6.724;2023-06-14T08:46:49;4.88;;;2.50;;
74793;SDS011;63320;50.768;6.724;2023-06-14T08:49:16;15.75;;;3.28;;
74793;SDS011;63320;50.768;6.724;2023-06-14T08:51:42;7.43;;;2.60;;
74793;SDS011;63320;50.768;6.724;2023-06-14T08:54:08;7.25;;;2.40;;
74793;SDS011;63320;50.768;6.724;2023-06-14T08:56:36;5.18;;;2.17;;
74793;SDS011;63320;50.768;6.724;2023-06-14T08:59:02;9.10;;;2.63;;
74793;SDS011;63320;50.768;6.724;2023-06-14T09:01:28;8.23;;;2.63;;
74793;SDS011;63320;50.768;6.724;2023-06-14T09:03:55;5.25;;;2.53;;
74793;SDS011;63320;50.768;6.724;2023-06-14T09:06:21;5.03;;;2.30;;
74793;SDS011;63320;50.768;6.724;2023-06-14T09:08:46;5.78;;;2.40;;
74793;SDS011;63320;50.768;6.724;2023-06-14T09:11:12;6.68;;;2.80;;
74793;SDS011;63320;50.768;6.724;2023-06-14T09:13:38;6.18;;;2.30;;
74793;SDS011;63320;50.768;6.724;2023-06-14T09:16:04;5.45;;;2.03;;
74793;SDS011;63320;50.768;6.724;2023-06-14T09:18:34;5.70;;;1.90;;
74793;SDS011;63320;50.768;6.724;2023-06-14T09:21:01;6.32;;;1.80;;
74793;SDS011;63320;50.768;6.724;2023-06-14T09:23:26;8.13;;;2.00;;
74793;SDS011;63320;50.768;6.724;2023-06-14T09:25:52;5.68;;;1.80;;
74793;SDS011;63320;50.768;6.724;2023-06-14T09:28:17;4.47;;;1.70;;
74793;SDS011;63320;50.768;6.724;2023-06-14T09:30:43;4.07;;;1.60;;
74793;SDS011;63320;50.768;6.724;2023-06-14T09:33:08;5.32;;;1.73;;
74793;SDS011;63320;50.768;6.724;2023-06-14T09:35:34;6.22;;;1.98;;
74793;SDS011;63320;50.768;6.724;2023-06-14T09:38:01;4.20;;;1.92;;
74793;SDS011;63320;50.768;6.724;2023-06-14T09:40:26;5.15;;;1.55;;
74793;SDS011;63320;50.768;6.724;2023-06-14T09:42:52;5.65;;;1.95;;
74793;SDS011;63320;50.768;6.724;2023-06-14T09:45:18;5.85;;;1.90;;
74793;SDS011;63320;50.768;6.724;2023-06-14T09:47:45;6.97;;;1.90;;
74793;SDS011;63320;50.768;6.724;2023-06-14T09:50:11;5.05;;;2.17;;
74793;SDS011;63320;50.768;6.724;2023-06-14T09:52:36;6.47;;;2.03;;
74793;SDS011;63320;50.768;6.724;2023-06-14T09:55:04;4.30;;;1.70;;
74793;SDS011;63320;50.768;6.724;2023-06-14T09:57:36;5.50;;;2.03;;
74793;SDS011;63320;50.768;6.724;2023-06-14T10:00:06;5.45;;;1.98;;
74793;SDS011;63320;50.768;6.724;2023-06-14T10:02:34;4.82;;;2.00;;
74793;SDS011;63320;50.768;6.724;2023-06-14T10:05:02;6.80;;;1.88;;
74793;SDS011;63320;50.768;6.724;2023-06-14T10:07:30;5.13;;;1.77;;
74793;SDS011;63320;50.768;6.724;2023-06-14T10:09:58;5.40;;;2.15;;
74793;SDS011;63320;50.768;6.724;2023-06-14T10:12:26;5.63;;;1.77;;
74793;SDS011;63320;50.768;6.724;2023-06-14T10:14:51;5.07;;;1.77;;
74793;SDS011;63320;50.768;6.724;2023-06-14T10:17:20;6.40;;;1.98;;
74793;SDS011;63320;50.768;6.724;2023-06-14T10:19:53;6.25;;;2.00;;
74793;SDS011;63320;50.768;6.724;2023-06-14T10:22:25;4.82;;;2.00;;
74793;SDS011;63320;50.768;6.724;2023-06-14T10:24:54;5.63;;;1.88;;
74793;SDS011;63320;50.768;6.724;2023-06-14T10:27:21;12.45;;;2.45;;
74793;SDS011;63320;50.768;6.724;2023-06-14T10:30:03;8.50;;;2.03;;
74793;SDS011;63320;50.768;6.724;2023-06-14T10:32:32;5.13;;;1.90;;
74793;SDS011;63320;50.768;6.724;2023-06-14T10:34:59;5.38;;;1.90;;
74793;SDS011;63320;50.768;6.724;2023-06-14T10:37:25;3.90;;;1.70;;
74793;SDS011;63320;50.768;6.724;2023-06-14T10:39:51;5.60;;;1.70;;
74793;SDS011;63320;50.768;6.724;2023-06-14T10:42:16;5.75;;;1.80;;
74793;SDS011;63320;50.768;6.724;2023-06-14T10:44:42;4.35;;;2.03;;
74793;SDS011;63320;50.768;6.724;2023-06-14T10:47:11;5.28;;;1.65;;
74793;SDS011;63320;50.768;6.724;2023-06-14T10:49:46;7.40;;;1.88;;
74793;SDS011;63320;50.768;6.724;2023-06-14T10:52:15;4.53;;;1.67;;
74793;SDS011;63320;50.768;6.724;2023-06-14T10:54:51;5.00;;;1.80;;
74793;SDS011;63320;50.768;6.724;2023-06-14T10:57:20;6.38;;;2.00;;
74793;SDS011;63320;50.768;6.724;2023-06-14T10:59:46;4.63;;;1.80;;
74793;SDS011;63320;50.768;6.724;2023-06-14T11:02:18;6.88;;;1.80;;
74793;SDS011;63320;50.768;6.724;2023-06-14T11:05:03;6.32;;;1.95;;
74793;SDS011;63320;50.768;6.724;2023-06-14T11:07:33;6.18;;;2.20;;
74793;SDS011;63320;50.768;6.724;2023-06-14T11:10:12;6.53;;;2.25;;
74793;SDS011;63320;50.768;6.724;2023-06-14T11:12:47;5.13;;;1.73;;
74793;SDS011;63320;50.768;6.724;2023-06-14T11:15:13;4.93;;;1.85;;
74793;SDS011;63320;50.768;6.724;2023-06-14T11:17:41;5.00;;;2.08;;
74793;SDS011;63320;50.768;6.724;2023-06-14T11:20:15;7.80;;;2.47;;
74793;SDS011;63320;50.768;6.724;2023-06-14T11:22:42;15.82;;;2.22;;
74793;SDS011;63320;50.768;6.724;2023-06-14T11:25:08;5.78;;;1.77;;
74793;SDS011;63320;50.768;6.724;2023-06-14T11:27:34;5.80;;;2.13;;
74793;SDS011;63320;50.768;6.724;2023-06-14T11:29:59;4.72;;;2.08;;
74793;SDS011;63320;50.768;6.724;2023-06-14T11:32:24;9.10;;;2.50;;
74793;SDS011;63320;50.768;6.724;2023-06-14T11:34:51;7.28;;;2.03;;
74793;SDS011;63320;50.768;6.724;2023-06-14T11:37:17;10.43;;;2.10;;
74793;SDS011;63320;50.768;6.724;2023-06-14T11:39:43;9.57;;;2.25;;
74793;SDS011;63320;50.768;6.724;2023-06-14T11:42:08;6.97;;;2.30;;
74793;SDS011;63320;50.768;6.724;2023-06-14T11:44:38;11.25;;;2.10;;
74793;SDS011;63320;50.768;6.724;2023-06-14T11:47:04;8.45;;;1.75;;
74793;SDS011;63320;50.768;6.724;2023-06-14T11:49:29;6.53;;;1.80;;
74793;SDS011;63320;50.768;6.724;2023-06-14T11:52:01;5.10;;;1.70;;
74793;SDS011;63320;50.768;6.724;2023-06-14T11:54:27;5.85;;;1.90;;
74793;SDS011;63320;50.768;6.724;2023-06-14T11:56:52;6.15;;;1.80;;
74793;SDS011;63320;50.768;6.724;2023-06-14T11:59:18;5.15;;;1.98;;
74793;SDS011;63320;50.768;6.724;2023-06-14T12:01:45;5.07;;;1.70;;
74793;SDS011;63320;50.768;6.724;2023-06-14T12:04:12;6.18;;;1.80;;
74793;SDS011;63320;50.768;6.724;2023-06-14T12:06:38;7.07;;;1.98;;
74793;SDS011;63320;50.768;6.724;2023-06-14T12:09:05;6.53;;;2.10;;
74793;SDS011;63320;50.768;6.724;2023-06-14T12:11:32;6.80;;;1.95;;
74793;SDS011;63320;50.768;6.724;2023-06-14T12:13:58;6.72;;;1.98;;
74793;SDS011;63320;50.768;6.724;2023-06-14T12:16:29;7.93;;;2.20;;
74793;SDS011;63320;50.768;6.724;2023-06-14T12:18:55;4.32;;;1.58;;
74793;SDS011;63320;50.768;6.724;2023-06-14T12:21:22;4.85;;;1.60;;
74793;SDS011;63320;50.768;6.724;2023-06-14T12:23:48;5.45;;;1.70;;
74793;SDS011;63320;50.768;6.724;2023-06-14T12:26:16;4.90;;;1.88;;
74793;SDS011;63320;50.768;6.724;2023-06-14T12:28:43;4.40;;;1.75;;
74793;SDS011;63320;50.768;6.724;2023-06-14T12:31:10;4.88;;;1.90;;
74793;SDS011;63320;50.768;6.724;2023-06-14T12:33:37;9.30;;;1.83;;
74793;SDS011;63320;50.768;6.724;2023-06-14T12:36:03;5.28;;;2.00;;
74793;SDS011;63320;50.768;6.724;2023-06-14T12:38:28;8.60;;;2.00;;
74793;SDS011;63320;50.768;6.724;2023-06-14T12:40:54;4.10;;;1.80;;
74793;SDS011;63320;50.768;6.724;2023-06-14T12:43:20;7.10;;;1.92;;
74793;SDS011;63320;50.768;6.724;2023-06-14T12:45:46;5.28;;;1.92;;
74793;SDS011;63320;50.768;6.724;2023-06-14T12:48:11;4.50;;;1.70;;
74793;SDS011;63320;50.768;6.724;2023-06-14T12:50:36;5.07;;;2.10;;
74793;SDS011;63320;50.768;6.724;2023-06-14T12:53:02;4.75;;;1.80;;
74793;SDS011;63320;50.768;6.724;2023-06-14T12:55:27;6.05;;;1.80;;
74793;SDS011;63320;50.768;6.724;2023-06-14T12:57:52;5.70;;;1.83;;
74793;SDS011;63320;50.768;6.724;2023-06-14T13:00:19;3.63;;;1.63;;
74793;SDS011;63320;50.768;6.724;2023-06-14T13:02:45;4.32;;;1.77;;
74793;SDS011;63320;50.768;6.724;2023-06-14T13:05:10;3.92;;;1.98;;
74793;SDS011;63320;50.768;6.724;2023-06-14T13:07:35;5.40;;;1.85;;
74793;SDS011;63320;50.768;6.724;2023-06-14T13:10:01;4.95;;;1.65;;
74793;SDS011;63320;50.768;6.724;2023-06-14T13:12:26;4.68;;;1.83;;
74793;SDS011;63320;50.768;6.724;2023-06-14T13:14:52;8.27;;;1.85;;
74793;SDS011;63320;50.768;6.724;2023-06-14T13:17:18;4.60;;;1.65;;
74793;SDS011;63320;50.768;6.724;2023-06-14T13:19:44;5.38;;;1.80;;
74793;SDS011;63320;50.768;6.724;2023-06-14T13:22:09;4.63;;;1.70;;
74793;SDS011;63320;50.768;6.724;2023-06-14T13:24:34;5.03;;;1.85;;
74793;SDS011;63320;50.768;6.724;2023-06-14T13:27:00;6.05;;;1.75;;
74793;SDS011;63320;50.768;6.724;2023-06-14T13:29:25;5.10;;;1.58;;
74793;SDS011;63320;50.768;6.724;2023-06-14T13:31:51;5.82;;;1.50;;
74793;SDS011;63320;50.768;6.724;2023-06-14T13:34:17;7.28;;;2.03;;
74793;SDS011;63320;50.768;6.724;2023-06-14T13:36:43;5.63;;;1.52;;
74793;SDS011;63320;50.768;6.724;2023-06-14T13:39:08;4.22;;;1.40;;
74793;SDS011;63320;50.768;6.724;2023-06-14T13:41:34;4.30;;;1.42;;
74793;SDS011;63320;50.768;6.724;2023-06-14T13:43:59;6.82;;;1.58;;
74793;SDS011;63320;50.768;6.724;2023-06-14T13:46:25;4.50;;;1.48;;
74793;SDS011;63320;50.768;6.724;2023-06-14T13:48:50;5.28;;;1.25;;
74793;SDS011;63320;50.768;6.724;2023-06-14T13:51:17;4.43;;;1.20;;
74793;SDS011;63320;50.768;6.724;2023-06-14T13:53:43;4.07;;;1.50;;
74793;SDS011;63320;50.768;6.724;2023-06-14T13:56:10;6.55;;;1.58;;
74793;SDS011;63320;50.768;6.724;2023-06-14T13:58:37;3.22;;;1.25;;
74793;SDS011;63320;50.768;6.724;2023-06-14T14:01:02;4.18;;;1.20;;
74793;SDS011;63320;50.768;6.724;2023-06-14T14:03:28;5.30;;;1.30;;
74793;SDS011;63320;50.768;6.724;2023-06-14T14:05:53;5.10;;;1.40;;
74793;SDS011;63320;50.768;6.724;2023-06-14T14:08:20;4.05;;;1.40;;
74793;SDS011;63320;50.768;6.724;2023-06-14T14:10:45;3.17;;;1.30;;
74793;SDS011;63320;50.768;6.724;2023-06-14T14:13:10;3.22;;;1.23;;
74793;SDS011;63320;50.768;6.724;2023-06-14T14:15:36;2.80;;;1.20;;
74793;SDS011;63320;50.768;6.724;2023-06-14T14:18:01;4.63;;;1.20;;
74793;SDS011;63320;50.768;6.724;2023-06-14T14:20:27;4.43;;;1.27;;
74793;SDS011;63320;50.768;6.724;2023-06-14T14:22:54;4.90;;;1.30;;
74793;SDS011;63320;50.768;6.724;2023-06-14T14:25:21;3.83;;;1.45;;
74793;SDS011;63320;50.768;6.724;2023-06-14T14:27:46;2.80;;;1.20;;
74793;SDS011;63320;50.768;6.724;2023-06-14T14:30:12;3.80;;;1.38;;
74793;SDS011;63320;50.768;6.724;2023-06-14T14:32:38;4.25;;;1.50;;
74793;SDS011;63320;50.768;6.724;2023-06-14T14:35:03;5.95;;;1.48;;
74793;SDS011;63320;50.768;6.724;2023-06-14T14:37:29;4.03;;;1.50;;
74793;SDS011;63320;50.768;6.724;2023-06-14T14:39:54;3.33;;;1.50;;